Time;durP1;ratioP1;P1;durP2;ratioP2;P2;SDS_P1;SDS_P2;PMS_P1;PMS_P2;Temp;Humidity;BMP_temperature;BMP_pressure;BME280_temperature;BME280_humidity;BME280_pressure;Samples;Min_cycle;Max_cycle;Signal;HPM_P1;HPM_P2
2022/03/13 00:02:08;;;;;;;38.53;4.00;;;;;;;19.55;58.36;99979.44;7312012;19;129373;-39
2022/03/13 00:04:36;;;;;;;19.20;2.03;;;;;;;19.54;58.55;99961.28;7314631;19;129301;-40
2022/03/13 00:07:09;;;;;;;29.05;2.78;;;;;;;19.53;58.46;99965.69;7313172;19;130488;-39
2022/03/13 00:09:34;;;;;;;32.45;2.88;;;;;;;19.53;58.62;99960.47;7309895;19;131502;-41
2022/03/13 00:12:03;;;;;;;32.30;2.97;;;;;;;19.43;58.15;99938.66;7311567;19;154810;-41
2022/03/13 00:14:29;;;;;;;20.17;2.13;;;;;;;19.54;57.75;99953.47;7313869;19;129098;-39
2022/03/13 00:16:54;;;;;;;62.70;5.20;;;;;;;19.53;58.58;99957.03;7312538;19;130269;-39
2022/03/13 00:19:21;;;;;;;48.17;4.50;;;;;;;19.53;57.95;99959.63;7310521;19;130519;-38
2022/03/13 00:21:52;;;;;;;41.77;3.70;;;;;;;19.53;59.52;99949.22;7312491;19;129259;-39
2022/03/13 00:24:20;;;;;;;21.52;2.35;;;;;;;19.50;59.03;99959.88;7313322;19;128970;-38
2022/03/13 00:26:47;;;;;;;25.23;2.85;;;;;;;19.50;58.34;99945.06;7312329;19;130192;-39
2022/03/13 00:29:12;;;;;;;26.95;2.72;;;;;;;19.57;57.94;99958.47;7311244;19;129636;-40
2022/03/13 00:31:37;;;;;;;24.15;2.53;;;;;;;19.59;58.21;99953.94;7312540;19;128863;-39
2022/03/13 00:34:03;;;;;;;27.35;2.72;;;;;;;19.55;58.42;99957.75;7312401;19;129508;-39
2022/03/13 00:36:28;;;;;;;20.42;2.08;;;;;;;19.55;58.22;99947.31;7312776;19;157238;-39
2022/03/13 00:38:53;;;;;;;8.90;1.40;;;;;;;19.54;58.12;99956.06;7310841;19;158766;-42
2022/03/13 00:41:18;;;;;;;27.07;2.63;;;;;;;19.56;58.12;99948.97;7309392;19;154885;-39
2022/03/13 00:43:44;;;;;;;34.60;3.23;;;;;;;19.53;58.36;99960.47;7311954;19;153257;-39
2022/03/13 00:46:09;;;;;;;24.63;2.50;;;;;;;19.56;57.80;99947.19;7311134;19;158436;-40
2022/03/13 00:48:34;;;;;;;30.83;3.23;;;;;;;19.53;59.10;99959.63;7308155;19;159168;-39
2022/03/13 00:50:59;;;;;;;31.95;3.28;;;;;;;19.43;58.47;99942.09;7313004;19;129236;-39
2022/03/13 00:53:25;;;;;;;13.75;1.88;;;;;;;19.52;58.27;99950.16;7312053;19;129773;-39
2022/03/13 00:55:51;;;;;;;32.00;3.25;;;;;;;19.55;58.37;99942.09;7312308;19;129467;-39
2022/03/13 00:58:16;;;;;;;25.88;2.53;;;;;;;19.51;58.70;99951.09;7312783;19;130446;-38
2022/03/13 01:00:42;;;;;;;23.40;2.40;;;;;;;19.41;58.84;99922.28;7311179;19;155133;-39
2022/03/13 01:03:16;;;;;;;26.83;2.67;;;;;;;19.50;58.79;99936.41;7309358;19;129538;-39
2022/03/13 01:05:42;;;;;;;32.08;3.17;;;;;;;19.55;58.05;99939.50;7313083;19;130535;-39
2022/03/13 01:08:07;;;;;;;29.55;2.92;;;;;;;19.51;58.26;99935.44;7311690;19;137546;-40
2022/03/13 01:10:32;;;;;;;31.03;3.10;;;;;;;19.51;59.04;99941.50;7310345;19;154544;-39
2022/03/13 01:12:58;;;;;;;24.83;2.45;;;;;;;19.54;58.01;99941.25;7311661;19;143618;-39
2022/03/13 01:15:26;;;;;;;47.93;4.53;;;;;;;19.56;57.62;99935.94;7311130;19;158516;-39
2022/03/13 01:17:52;;;;;;;34.03;3.42;;;;;;;19.51;58.31;99933.69;7311215;19;131040;-40
2022/03/13 01:20:21;;;;;;;27.13;2.67;;;;;;;19.48;59.32;99937.34;7309844;19;129324;-39
2022/03/13 01:22:48;;;;;;;28.52;2.72;;;;;;;19.49;58.89;99940.78;7307471;19;129143;-39
2022/03/13 01:25:14;;;;;;;26.55;2.67;;;;;;;19.48;59.41;99925.25;7312615;19;130338;-41
2022/03/13 01:27:40;;;;;;;28.35;2.70;;;;;;;19.46;59.26;99933.19;7312312;19;130001;-40
2022/03/13 01:30:06;;;;;;;15.02;2.05;;;;;;;19.50;58.23;99946.84;7310907;19;129472;-40
2022/03/13 01:32:33;;;;;;;38.35;3.50;;;;;;;19.40;58.58;99915.44;7310853;19;129521;-40
2022/03/13 01:34:58;;;;;;;30.02;2.90;;;;;;;19.45;58.19;99906.28;7311408;19;129464;-39
2022/03/13 01:37:39;;;;;;;13.52;2.05;;;;;;;19.48;59.61;99924.31;7309050;19;131567;-39
2022/03/13 01:40:10;;;;;;;29.80;2.65;;;;;;;19.50;58.79;99929.44;7311570;19;129868;-40
2022/03/13 01:42:37;;;;;;;18.80;2.05;;;;;;;19.38;58.25;99905.13;7309518;19;130359;-39
2022/03/13 01:45:09;;;;;;;24.80;2.45;;;;;;;19.38;59.43;99904.28;7310571;19;131034;-39
2022/03/13 01:47:34;;;;;;;21.25;2.25;;;;;;;19.48;59.15;99920.03;7311165;19;129614;-41
2022/03/13 01:50:00;;;;;;;36.97;3.42;;;;;;;19.51;58.50;99920.66;7307522;19;129026;-39
2022/03/13 01:52:28;;;;;;;24.83;2.53;;;;;;;19.48;58.45;99921.69;7308337;19;153598;-39
2022/03/13 01:54:55;;;;;;;28.25;2.92;;;;;;;19.51;58.36;99917.19;7311521;19;130523;-40
2022/03/13 01:57:22;;;;;;;16.40;2.17;;;;;;;19.47;58.54;99918.41;7308496;19;130481;-39
2022/03/13 01:59:59;;;;;;;27.13;2.78;;;;;;;19.51;58.23;99912.81;7307899;19;129155;-40
2022/03/13 02:02:28;;;;;;;21.42;2.08;;;;;;;19.48;58.51;99911.25;7308872;19;129011;-40
2022/03/13 02:04:56;;;;;;;26.88;2.72;;;;;;;19.47;58.26;99907.97;7310799;19;130627;-39
2022/03/13 02:07:23;;;;;;;11.35;1.65;;;;;;;19.48;58.72;99914.84;7309403;19;130383;-39
2022/03/13 02:09:49;;;;;;;29.67;3.10;;;;;;;19.47;59.40;99911.38;7306025;19;129205;-39
2022/03/13 02:12:17;;;;;;;27.10;2.72;;;;;;;19.48;58.43;99910.47;7309472;19;128947;-39
2022/03/13 02:14:42;;;;;;;46.03;3.88;;;;;;;19.47;59.14;99907.97;7309435;19;130179;-40
2022/03/13 02:17:07;;;;;;;30.23;2.92;;;;;;;19.50;59.04;99907.72;7308953;19;133968;-38
2022/03/13 02:19:34;;;;;;;24.95;2.53;;;;;;;19.48;58.86;99911.25;7306621;19;154799;-39
2022/03/13 02:21:59;;;;;;;46.90;4.60;;;;;;;19.47;58.51;99908.78;7305938;19;129487;-40
2022/03/13 02:24:26;;;;;;;34.85;3.15;;;;;;;19.47;58.88;99892.31;7309643;19;130098;-39
2022/03/13 02:27:10;;;;;;;29.23;2.72;;;;;;;19.46;59.55;99901.91;7308324;19;130374;-40
2022/03/13 02:29:35;;;;;;;29.73;3.00;;;;;;;19.48;58.92;99904.41;7305786;19;154635;-37
2022/03/13 02:32:01;;;;;;;35.13;3.28;;;;;;;19.48;58.89;99901.78;7306754;19;154067;-39
2022/03/13 02:34:27;;;;;;;26.08;2.60;;;;;;;19.48;58.71;99909.63;7316526;19;131547;-40
2022/03/13 02:36:55;;;;;;;42.65;3.63;;;;;;;19.51;58.28;99905.00;7315161;19;131767;-39
2022/03/13 02:39:21;;;;;;;11.52;1.65;;;;;;;19.48;58.33;99905.25;7314469;19;129037;-39
2022/03/13 02:41:46;;;;;;;40.13;3.88;;;;;;;19.54;58.28;99899.53;7313280;19;154184;-41
2022/03/13 02:44:15;;;;;;;26.65;2.58;;;;;;;19.43;58.76;99887.34;7313122;19;156592;-40
2022/03/13 02:46:46;;;;;;;9.68;1.65;;;;;;;19.47;59.21;99897.53;7315593;19;131376;-39
2022/03/13 02:49:14;;;;;;;40.45;3.53;;;;;;;19.48;58.33;99896.59;7312570;19;155019;-39
2022/03/13 02:51:39;;;;;;;15.80;1.90;;;;;;;19.48;58.88;99909.63;7316184;19;129170;-41
2022/03/13 02:54:04;;;;;;;43.58;3.80;;;;;;;19.43;58.49;99884.75;7314313;19;129504;-39
2022/03/13 02:56:30;;;;;;;6.53;1.20;;;;;;;19.50;58.34;99902.50;7316052;19;129657;-39
2022/03/13 02:58:55;;;;;;;50.90;4.22;;;;;;;19.38;58.79;99884.28;7314144;19;130855;-39
2022/03/13 03:01:21;;;;;;;21.10;2.17;;;;;;;19.45;58.60;99898.47;7315684;19;129776;-40
2022/03/13 03:03:48;;;;;;;27.98;2.80;;;;;;;19.48;58.35;99896.59;7315032;19;131220;-40
2022/03/13 03:06:13;;;;;;;24.13;2.57;;;;;;;19.44;59.14;99896.81;7315180;19;129652;-40
2022/03/13 03:08:39;;;;;;;20.55;2.15;;;;;;;19.48;58.95;99894.81;7315396;19;129524;-40
2022/03/13 03:11:04;;;;;;;22.30;2.42;;;;;;;19.48;59.02;99899.19;7317263;19;129072;-40
2022/03/13 03:13:29;;;;;;;16.90;1.92;;;;;;;19.46;58.05;99891.47;7312677;19;158394;-40
2022/03/13 03:15:54;;;;;;;24.88;2.67;;;;;;;19.47;58.37;99900.16;7313239;19;158299;-39
2022/03/13 03:18:20;;;;;;;34.17;3.20;;;;;;;19.48;59.21;99900.84;7312895;19;155261;-39
2022/03/13 03:20:45;;;;;;;34.47;3.27;;;;;;;19.35;59.30;99879.25;7314522;19;155954;-39
2022/03/13 03:23:10;;;;;;;34.95;3.35;;;;;;;19.42;59.03;99898.72;7313029;19;137957;-39
2022/03/13 03:25:36;;;;;;;11.48;1.52;;;;;;;19.45;58.65;99893.25;7313933;19;130435;-40
2022/03/13 03:28:01;;;;;;;40.88;3.22;;;;;;;19.50;58.65;99892.09;7314412;19;129301;-38
2022/03/13 03:30:29;;;;;;;20.17;2.07;;;;;;;19.45;58.97;99906.28;7314853;19;154314;-39
2022/03/13 03:32:55;;;;;;;23.70;2.33;;;;;;;19.41;58.48;99889.25;7315693;19;129759;-39
2022/03/13 03:35:22;;;;;;;47.77;4.43;;;;;;;19.37;58.54;99881.75;7313214;19;129378;-40
2022/03/13 03:37:48;;;;;;;28.15;2.78;;;;;;;19.48;58.19;99903.44;7315624;19;129068;-40
2022/03/13 03:40:13;;;;;;;23.80;2.33;;;;;;;19.47;58.15;99900.97;7316243;19;129139;-39
2022/03/13 03:42:40;;;;;;;22.45;2.25;;;;;;;19.45;58.66;99895.84;7311449;19;158166;-39
2022/03/13 03:45:06;;;;;;;27.80;2.70;;;;;;;19.47;58.20;99897.53;7312415;19;129757;-39
2022/03/13 03:47:32;;;;;;;7.47;1.17;;;;;;;19.47;58.88;99898.34;7315176;19;129888;-39
2022/03/13 03:49:57;;;;;;;29.58;3.00;;;;;;;19.48;58.87;99900.84;7310836;19;153585;-39
2022/03/13 03:52:22;;;;;;;21.67;2.20;;;;;;;19.48;58.63;99899.19;7313382;19;150656;-40
2022/03/13 03:54:48;;;;;;;34.78;3.35;;;;;;;19.44;59.29;99893.38;7313257;19;158833;-39
2022/03/13 03:57:13;;;;;;;30.17;2.95;;;;;;;19.47;58.12;99902.75;7311458;19;155245;-40
2022/03/13 03:59:38;;;;;;;26.93;2.70;;;;;;;19.48;58.38;99900.03;7310950;19;152969;-40
2022/03/13 04:02:03;;;;;;;25.43;2.43;;;;;;;19.47;58.72;99897.53;7311031;19;159304;-39
2022/03/13 04:04:29;;;;;;;34.83;3.27;;;;;;;19.50;58.14;99902.50;7312241;19;158205;-37
2022/03/13 04:06:54;;;;;;;23.27;2.28;;;;;;;19.48;58.62;99899.19;7311298;19;135126;-39
2022/03/13 04:09:19;;;;;;;24.70;2.47;;;;;;;19.45;58.71;99901.06;7311002;19;154233;-39
2022/03/13 04:11:46;;;;;;;33.97;3.20;;;;;;;19.44;58.54;99894.22;7312765;19;129086;-39
2022/03/13 04:14:12;;;;;;;23.67;2.28;;;;;;;19.45;59.07;99900.28;7313657;19;130381;-38
2022/03/13 04:16:38;;;;;;;22.20;2.27;;;;;;;19.45;58.20;99900.28;7311361;19;129117;-39
2022/03/13 04:19:03;;;;;;;28.70;2.67;;;;;;;19.45;58.70;99898.47;7309305;19;154210;-39
2022/03/13 04:21:28;;;;;;;26.80;2.53;;;;;;;19.47;58.54;99898.34;7312837;19;130221;-38
2022/03/13 04:23:54;;;;;;;12.15;1.67;;;;;;;19.45;58.49;99906.28;7311024;19;130858;-40
2022/03/13 04:26:22;;;;;;;33.85;3.28;;;;;;;19.44;59.19;99904.66;7312249;19;129299;-38
2022/03/13 04:28:49;;;;;;;28.08;2.80;;;;;;;19.43;58.55;99892.56;7310873;19;129172;-38
2022/03/13 04:31:14;;;;;;;22.50;2.45;;;;;;;19.38;59.07;99889.50;7313594;19;130016;-39
2022/03/13 04:33:40;;;;;;;37.25;3.60;;;;;;;19.42;58.60;99901.31;7309823;19;130343;-39
2022/03/13 04:36:10;;;;;;;38.65;3.60;;;;;;;19.42;58.52;99901.31;7312784;19;129343;-39
2022/03/13 04:38:35;;;;;;;20.20;2.10;;;;;;;19.47;58.41;99887.13;7310431;19;129601;-39
2022/03/13 04:41:00;;;;;;;24.95;2.42;;;;;;;19.45;58.79;99895.84;7312287;19;129234;-39
2022/03/13 04:43:26;;;;;;;23.83;2.47;;;;;;;19.40;59.60;99898.00;7308560;19;158657;-38
2022/03/13 04:45:52;;;;;;;22.33;2.10;;;;;;;19.40;58.89;99897.19;7310279;19;128834;-39
2022/03/13 04:48:18;;;;;;;58.93;4.90;;;;;;;19.45;58.69;99913.31;7308899;19;153969;-38
2022/03/13 04:50:45;;;;;;;27.53;2.63;;;;;;;19.46;58.44;99899.31;7310389;19;130963;-39
2022/03/13 04:53:11;;;;;;;;;;;;;;;19.44;60.12;99902.03;7312019;19;130737;-40
2022/03/13 04:55:36;;;;;;;41.65;3.40;;;;;;;19.37;58.46;99885.19;7310955;19;129977;-38
2022/03/13 04:58:02;;;;;;;23.00;2.42;;;;;;;19.50;58.34;99907.72;7311536;19;129407;-39
2022/03/13 05:00:27;;;;;;;33.25;2.97;;;;;;;19.47;58.20;99894.94;7308410;19;158311;-39
2022/03/13 05:02:56;;;;;;;26.40;2.55;;;;;;;19.42;58.83;99898.72;7309502;19;130350;-38
2022/03/13 05:05:22;;;;;;;39.92;3.67;;;;;;;19.33;58.48;99886.41;7309663;19;129160;-39
2022/03/13 05:07:48;;;;;;;26.98;2.63;;;;;;;19.44;58.35;99894.22;7309698;19;129597;-40
2022/03/13 05:10:15;;;;;;;23.05;2.35;;;;;;;19.47;58.54;99900.16;7309270;19;130189;-39
2022/03/13 05:12:43;;;;;;;40.15;3.53;;;;;;;19.42;58.46;99892.66;7308779;19;130583;-39
2022/03/13 05:15:08;;;;;;;42.60;3.92;;;;;;;19.32;58.85;99884.72;7311728;19;130723;-39
2022/03/13 05:17:34;;;;;;;37.78;3.55;;;;;;;19.41;59.05;99904.03;7310021;19;129759;-40
2022/03/13 05:19:59;;;;;;;33.83;3.08;;;;;;;19.43;58.65;99900.38;7304909;19;159017;-39
2022/03/13 05:22:24;;;;;;;23.38;2.50;;;;;;;19.37;59.04;99898.22;7309199;19;159845;-39
2022/03/13 05:24:49;;;;;;;61.70;5.22;;;;;;;19.42;58.56;99903.94;7309831;19;130236;-40
2022/03/13 05:27:15;;;;;;;25.35;2.67;;;;;;;19.45;58.66;99902.88;7308330;19;154904;-39
2022/03/13 05:29:40;;;;;;;36.07;3.33;;;;;;;19.42;58.90;99911.75;7305778;19;157433;-39
2022/03/13 05:32:05;;;;;;;34.70;3.40;;;;;;;19.39;58.63;99906.78;7307197;19;158767;-39
2022/03/13 05:34:31;;;;;;;21.45;1.98;;;;;;;19.42;58.31;99911.75;7309862;19;128964;-39
2022/03/13 05:36:56;;;;;;;46.63;4.23;;;;;;;19.39;58.72;99922.41;7307625;19;154280;-40
2022/03/13 05:39:21;;;;;;;25.93;2.37;;;;;;;19.39;59.34;99917.19;7306540;19;153761;-39
2022/03/13 05:41:47;;;;;;;26.90;2.70;;;;;;;19.42;58.95;99922.19;7307474;19;160032;-40
2022/03/13 05:44:12;;;;;;;27.42;2.67;;;;;;;19.40;59.37;99923.25;7307512;19;129831;-39
2022/03/13 05:46:38;;;;;;;13.13;1.73;;;;;;;19.46;59.02;99922.78;7310591;19;129208;-39
2022/03/13 05:49:04;;;;;;;36.55;3.47;;;;;;;19.42;58.70;99926.56;7305807;19;130541;-39
2022/03/13 05:51:35;;;;;;;30.67;3.23;;;;;;;19.42;58.82;99932.59;7309925;19;129343;-38
2022/03/13 05:54:02;;;;;;;31.42;3.05;;;;;;;19.41;58.15;99922.28;7309929;19;128980;-39
2022/03/13 05:56:27;;;;;;;18.25;1.98;;;;;;;19.42;58.22;99927.38;7310935;19;129395;-40
2022/03/13 05:58:52;;;;;;;41.33;3.65;;;;;;;19.45;58.46;99924.53;7306324;19;149977;-39
2022/03/13 06:01:17;;;;;;;25.90;2.65;;;;;;;19.39;58.71;99919.81;7308453;19;144681;-39
2022/03/13 06:03:43;;;;;;;50.30;4.47;;;;;;;19.40;58.88;99926.66;7305214;19;154833;-41
2022/03/13 06:06:09;;;;;;;24.08;2.22;;;;;;;19.40;58.44;99934.50;7309257;19;128974;-39
2022/03/13 06:08:35;;;;;;;17.48;1.65;;;;;;;19.42;58.31;99936.97;7315390;19;129366;-38
2022/03/13 06:11:01;;;;;;;19.55;2.10;;;;;;;19.32;58.57;99931.66;7314969;19;130321;-39
2022/03/13 06:13:26;;;;;;;31.33;2.83;;;;;;;19.39;58.61;99937.22;7315778;19;139111;-39
2022/03/13 06:15:52;;;;;;;30.55;3.03;;;;;;;19.42;58.21;99945.63;7316274;19;129147;-40
2022/03/13 06:18:17;;;;;;;24.43;2.40;;;;;;;19.43;58.85;99939.50;7316493;19;159432;-38
2022/03/13 06:20:43;;;;;;;39.73;4.07;;;;;;;19.40;58.50;99936.28;7312347;19;158181;-39
2022/03/13 06:23:09;;;;;;;22.20;2.15;;;;;;;19.44;58.79;99946.38;7314722;19;130245;-39
2022/03/13 06:25:34;;;;;;;54.38;4.60;;;;;;;19.50;58.79;99939.03;7315548;19;129359;-38
2022/03/13 06:28:00;;;;;;;43.08;3.78;;;;;;;19.45;58.80;99937.56;7314527;19;130565;-39
2022/03/13 06:30:25;;;;;;;34.17;3.03;;;;;;;19.45;58.71;99942.78;7315456;19;151968;-39
2022/03/13 06:32:52;;;;;;;24.02;2.38;;;;;;;19.35;58.62;99928.00;7316611;19;129229;-39
2022/03/13 06:35:19;;;;;;;37.70;3.58;;;;;;;19.40;58.91;99955.34;7316352;19;130695;-38
2022/03/13 06:37:45;;;;;;;30.13;2.75;;;;;;;19.35;58.86;99943.63;7313027;19;130786;-39
2022/03/13 06:40:11;;;;;;;21.77;2.22;;;;;;;19.42;58.94;99960.44;7316857;19;130327;-40
2022/03/13 06:42:39;;;;;;;23.42;2.10;;;;;;;19.41;59.37;99956.19;7312753;19;129768;-40
2022/03/13 06:45:06;;;;;;;26.83;2.63;;;;;;;19.38;58.72;99964.25;7314160;19;155052;-39
2022/03/13 06:47:31;;;;;;;;;;;;;;;19.44;59.88;99950.75;7314558;19;130238;-39
2022/03/13 06:49:57;;;;;;;30.10;2.80;;;;;;;19.38;59.05;99946.84;7311329;19;160418;-39
2022/03/13 06:52:22;;;;;;;33.67;2.72;;;;;;;19.41;58.43;99946.59;7313557;19;129559;-40
2022/03/13 06:54:48;;;;;;;27.90;2.55;;;;;;;19.41;58.94;99951.81;7314771;19;129481;-40
2022/03/13 06:57:14;;;;;;;30.05;2.85;;;;;;;19.40;58.68;99950.13;7313328;19;158625;-39
2022/03/13 06:59:41;;;;;;;23.55;2.40;;;;;;;19.42;58.09;99942.19;7309546;19;131158;-38
2022/03/13 07:02:07;;;;;;;;;;;;;;;19.41;59.75;99933.56;7315610;19;129302;-40
2022/03/13 07:04:32;;;;;;;21.52;2.15;;;;;;;19.41;58.75;99930.97;7314712;19;129223;-40
2022/03/13 07:06:58;;;;;;;28.67;2.80;;;;;;;19.42;58.20;99955.22;7313819;19;158252;-40
2022/03/13 07:09:23;;;;;;;40.17;3.72;;;;;;;19.40;58.67;99933.69;7312124;19;130973;-43
2022/03/13 07:11:49;;;;;;;26.03;2.50;;;;;;;19.37;58.73;99936.50;7312566;19;154767;-38
2022/03/13 07:14:16;;;;;;;31.58;3.20;;;;;;;19.30;58.73;99920.50;7314909;19;129191;-40
2022/03/13 07:16:41;;;;;;;30.80;2.83;;;;;;;19.34;59.29;99945.41;7313648;19;130390;-39
2022/03/13 07:19:07;;;;;;;27.10;2.50;;;;;;;19.38;58.37;99936.41;7311069;19;130904;-39
2022/03/13 07:21:32;;;;;;;41.27;3.80;;;;;;;19.23;59.63;99937.53;7310138;19;152462;-40
2022/03/13 07:23:57;;;;;;;18.30;2.13;;;;;;;19.29;58.82;99936.25;7310872;19;153586;-40
2022/03/13 07:26:22;;;;;;;42.53;3.70;;;;;;;19.27;58.76;99919.91;7311320;19;158917;-38
2022/03/13 07:28:48;;;;;;;29.03;2.87;;;;;;;19.37;58.82;99934.72;7308085;19;158508;-39
2022/03/13 07:31:13;;;;;;;36.13;3.13;;;;;;;19.40;58.18;99924.06;7310803;19;154441;-40
2022/03/13 07:33:39;;;;;;;57.42;4.70;;;;;;;19.36;58.75;99938.31;7311051;19;129448;-39
2022/03/13 07:36:04;;;;;;;30.45;2.42;;;;;;;19.37;58.80;99923.47;7312228;19;130395;-40
2022/03/13 07:38:30;;;;;;;27.13;2.42;;;;;;;19.36;58.70;99930.47;7311103;19;130413;-40
2022/03/13 07:40:55;;;;;;;31.52;3.08;;;;;;;19.27;58.74;99912.88;7312293;19;129098;-39
2022/03/13 07:43:20;;;;;;;38.83;3.45;;;;;;;19.38;59.16;99930.34;7309246;19;153854;-39
2022/03/13 07:45:45;;;;;;;43.47;3.97;;;;;;;19.28;59.05;99905.91;7312084;19;130210;-38
2022/03/13 07:48:11;;;;;;;26.83;2.67;;;;;;;19.35;59.22;99913.16;7310532;19;158338;-39
2022/03/13 07:50:36;;;;;;;24.67;2.22;;;;;;;19.27;59.29;99925.91;7309225;19;155305;-40
2022/03/13 07:53:02;;;;;;;11.30;1.70;;;;;;;19.40;58.31;99916.25;7313305;19;128916;-39
2022/03/13 07:55:27;;;;;;;49.03;4.28;;;;;;;19.31;58.71;99909.16;7311729;19;130326;-38
2022/03/13 07:57:53;;;;;;;49.88;4.40;;;;;;;19.37;58.41;99926.91;7312220;19;131432;-40
2022/03/13 08:00:21;;;;;;;32.40;2.78;;;;;;;19.35;58.92;99928.00;7311681;19;155997;-38
2022/03/13 08:02:47;;;;;;;46.42;4.28;;;;;;;19.38;58.55;99925.97;7309675;19;129570;-39
2022/03/13 08:05:21;;;;;;;25.05;2.45;;;;;;;19.39;59.30;99922.41;7312624;19;130227;-42
2022/03/13 08:07:47;;;;;;;36.53;3.47;;;;;;;19.38;58.59;99920.78;7310914;19;130358;-40
2022/03/13 08:10:12;;;;;;;24.38;2.70;;;;;;;19.31;58.41;99906.53;7311078;19;131147;-39
2022/03/13 08:12:38;;;;;;;30.95;3.08;;;;;;;19.36;58.29;99917.44;7311492;19;130426;-39
2022/03/13 08:15:08;;;;;;;35.63;3.20;;;;;;;19.36;59.01;99912.22;7311126;19;129951;-38
2022/03/13 08:17:34;;;;;;;39.33;3.42;;;;;;;19.37;58.09;99919.09;7309118;19;130999;-39
2022/03/13 08:19:59;;;;;;;41.37;3.77;;;;;;;19.28;58.23;99909.34;7306949;19;130780;-40
2022/03/13 08:22:25;;;;;;;33.17;3.03;;;;;;;19.36;58.57;99917.44;7309575;19;129707;-39
2022/03/13 08:24:50;;;;;;;31.58;3.03;;;;;;;19.35;59.03;99920.97;7310979;19;129646;-39
2022/03/13 08:27:16;;;;;;;38.63;3.53;;;;;;;19.34;58.47;99927.16;7307938;19;154728;-39
2022/03/13 08:29:42;;;;;;;33.22;2.83;;;;;;;19.32;58.61;99926.44;7308708;19;129113;-40
2022/03/13 08:32:08;;;;;;;37.33;3.47;;;;;;;19.35;58.12;99915.75;7310544;19;149557;-38
2022/03/13 08:34:34;;;;;;;29.58;2.85;;;;;;;19.33;58.42;99915.06;7310479;19;130096;-39
2022/03/13 08:36:59;;;;;;;30.95;2.97;;;;;;;19.31;58.76;99923.94;7309371;19;130911;-39
2022/03/13 08:39:24;;;;;;;44.47;3.93;;;;;;;19.32;58.54;99910.78;7306921;19;155459;-39
2022/03/13 08:41:49;;;;;;;45.83;3.93;;;;;;;19.35;58.59;99902.72;7308035;19;148953;-38
2022/03/13 08:44:15;;;;;;;55.60;4.73;;;;;;;19.38;58.10;99907.72;7304829;19;158140;-41
2022/03/13 08:46:40;;;;;;;12.20;1.67;;;;;;;19.32;58.09;99908.19;7309866;19;131096;-41
2022/03/13 08:49:07;;;;;;;29.83;2.67;;;;;;;19.36;58.99;99909.63;7308154;19;139491;-39
2022/03/13 08:51:32;;;;;;;25.60;2.25;;;;;;;19.36;57.87;99920.06;7310520;19;129489;-39
2022/03/13 08:53:57;;;;;;;36.80;3.55;;;;;;;19.33;58.63;99915.06;7308667;19;158418;-39
2022/03/13 08:56:23;;;;;;;14.73;1.75;;;;;;;19.32;58.26;99926.44;7308075;19;158595;-38
2022/03/13 08:58:48;;;;;;;36.35;3.10;;;;;;;19.23;59.05;99921.91;7309090;19;154413;-40
2022/03/13 09:01:14;;;;;;;49.03;4.80;;;;;;;19.21;58.89;99929.00;7310647;19;129268;-39
2022/03/13 09:03:40;;;;;;;27.90;2.90;;;;;;;19.26;58.46;99947.72;7311164;19;130104;-40
2022/03/13 09:06:06;;;;;;;27.08;2.80;;;;;;;19.24;58.42;99931.38;7309971;19;130311;-38
2022/03/13 09:08:31;;;;;;;31.52;3.05;;;;;;;19.32;58.48;99936.84;7310932;19;129272;-38
2022/03/13 09:10:56;;;;;;;17.25;1.95;;;;;;;19.28;57.93;99939.78;7307565;19;154821;-40
2022/03/13 09:13:21;;;;;;;34.63;3.60;;;;;;;19.27;59.01;99948.56;7309129;19;150572;-38
2022/03/13 09:15:48;;;;;;;32.10;3.15;;;;;;;19.32;57.83;99934.25;7309695;19;130366;-39
2022/03/13 09:18:13;;;;;;;31.07;3.07;;;;;;;19.34;57.86;99942.78;7309185;19;130071;-40
2022/03/13 09:20:39;;;;;;;26.48;2.53;;;;;;;19.39;58.24;99935.44;7310980;19;130041;-40
2022/03/13 09:23:06;;;;;;;33.53;3.33;;;;;;;19.38;58.56;99936.41;7308003;19;130390;-39
2022/03/13 09:25:31;;;;;;;49.38;4.88;;;;;;;19.41;58.14;99930.13;7309603;19;131035;-39
2022/03/13 09:27:56;;;;;;;22.40;2.35;;;;;;;19.39;58.31;99922.41;7307800;19;129216;-38
2022/03/13 09:30:21;;;;;;;33.40;3.45;;;;;;;19.37;58.44;99932.13;7309580;19;154926;-39
2022/03/13 09:32:47;;;;;;;25.13;2.70;;;;;;;19.36;58.23;99932.25;7308755;19;158007;-39
2022/03/13 09:35:12;;;;;;;11.63;1.73;;;;;;;19.36;58.09;99935.69;7311721;19;130318;-42
2022/03/13 09:37:39;;;;;;;31.92;3.25;;;;;;;19.38;57.77;99931.19;7310890;19;128779;-37
2022/03/13 09:40:05;;;;;;;35.22;3.55;;;;;;;19.35;58.04;99936.63;7308503;19;129636;-39
2022/03/13 09:42:31;;;;;;;57.53;5.20;;;;;;;19.35;58.31;99941.84;7307120;19;130837;-39
2022/03/13 09:44:59;;;;;;;43.33;4.05;;;;;;;19.36;58.44;99943.50;7307121;19;159768;-39
2022/03/13 09:47:24;;;;;;;34.53;3.33;;;;;;;19.38;57.77;99944.22;7309465;19;129956;-39
2022/03/13 09:49:51;;;;;;;24.15;2.75;;;;;;;19.35;57.80;99952.25;7307331;19;129011;-40
2022/03/13 09:52:16;;;;;;;33.30;3.83;;;;;;;19.36;57.08;99948.72;7309312;19;130054;-39
2022/03/13 09:54:41;;;;;;;26.17;2.88;;;;;;;19.20;58.00;99924.75;7310263;19;130357;-40
2022/03/13 09:57:07;;;;;;;35.40;3.92;;;;;;;19.22;56.89;99951.50;7306880;19;130480;-39
2022/03/13 09:59:32;;;;;;;41.20;4.18;;;;;;;19.18;56.02;99944.88;7305257;19;153989;-39
2022/03/13 10:01:58;;;;;;;47.08;5.00;;;;;;;19.16;56.67;99945.94;7306447;19;130139;-39
2022/03/13 10:04:23;;;;;;;32.33;3.75;;;;;;;19.20;55.85;99937.78;7304751;19;130358;-39
2022/03/13 10:07:11;;;;;;;59.37;5.97;;;;;;;19.25;57.79;99932.22;7306962;19;154355;-37
2022/03/13 10:09:40;;;;;;;33.78;3.85;;;;;;;19.25;56.45;99930.41;7304917;19;130316;-39
2022/03/13 10:12:18;;;;;;;26.17;3.05;;;;;;;19.22;57.57;99925.44;7309745;19;130228;-39
2022/03/13 10:15:04;;;;;;;29.10;3.42;;;;;;;19.21;58.06;99907.31;7308985;19;130354;-38
2022/03/13 10:17:32;;;;;;;31.88;3.75;;;;;;;19.32;56.21;99934.25;7308030;19;131052;-39
2022/03/13 10:20:25;;;;;;;33.90;3.53;;;;;;;19.33;58.00;99938.53;7305727;19;129470;-39
2022/03/13 10:23:00;;;;;;;36.95;4.22;;;;;;;19.26;57.40;99926.88;7306108;19;130181;-39
2022/03/13 10:25:32;;;;;;;50.42;5.15;;;;;;;19.26;56.23;99945.13;7308784;19;129593;-40
2022/03/13 10:28:12;;;;;;;58.08;6.07;;;;;;;19.24;57.10;99943.56;7307195;19;129097;-40
2022/03/13 10:30:38;;;;;;;26.48;3.17;;;;;;;19.21;54.83;99935.97;7308009;19;129465;-41
2022/03/13 10:33:05;;;;;;;19.30;2.70;;;;;;;19.21;54.39;99934.22;7305697;19;131171;-39
2022/03/13 10:35:31;;;;;;;;;;;;;;;19.19;56.75;99937.88;7308308;19;130855;-40
2022/03/13 10:37:56;;;;;;;37.97;4.35;;;;;;;19.16;54.52;99931.13;7306818;19;129031;-39
2022/03/13 10:40:24;;;;;;;36.45;4.45;;;;;;;19.09;54.91;99914.28;7305601;19;153915;-40
2022/03/13 10:42:51;;;;;;;32.40;3.97;;;;;;;19.13;54.55;99928.75;7305128;19;130345;-41
2022/03/13 10:45:36;;;;;;;;;;;;;;;19.16;56.99;99920.69;7306626;19;130030;-40
2022/03/13 10:48:25;;;;;;;42.05;4.80;;;;;;;19.19;56.10;99920.47;7306538;19;129865;-38
2022/03/13 10:50:52;;;;;;;36.42;4.45;;;;;;;19.19;54.36;99924.84;7303955;19;131060;-39
2022/03/13 10:53:21;;;;;;;35.38;4.15;;;;;;;19.21;53.60;99928.16;7307982;19;130449;-39
2022/03/13 10:56:20;;;;;;;49.67;5.32;;;;;;;19.21;55.79;99920.34;7312945;19;130375;-41
2022/03/13 10:58:47;;;;;;;18.33;2.95;;;;;;;19.20;54.88;99918.69;7310701;19;130904;-38
2022/03/13 11:01:19;;;;;;;37.72;4.43;;;;;;;19.08;54.24;99891.78;7311758;19;129857;-39
2022/03/13 11:04:02;;;;;;;40.25;4.55;;;;;;;19.17;55.09;99911.13;7312689;19;129276;-40
2022/03/13 11:06:27;;;;;;;38.20;4.00;;;;;;;19.17;54.34;99917.13;7313450;19;129323;-41
2022/03/13 11:08:55;;;;;;;36.22;4.07;;;;;;;19.21;53.41;99928.16;7313723;19;129347;-40
2022/03/13 11:11:27;;;;;;;31.52;4.05;;;;;;;19.14;53.79;99914.78;7312125;19;129370;-40
2022/03/13 11:13:59;;;;;;;31.55;3.70;;;;;;;19.20;53.33;99922.13;7312732;19;130443;-40
2022/03/13 11:16:32;;;;;;;25.08;3.42;;;;;;;19.18;54.20;99918.81;7315143;19;130615;-38
2022/03/13 11:19:02;;;;;;;30.30;3.67;;;;;;;19.17;54.04;99921.53;7312862;19;129458;-39